Time;durP1;ratioP1;P1;durP2;ratioP2;P2;SDS_P1;SDS_P2;PMS_P1;PMS_P2;Temp;Humidity;BMP_temperature;BMP_pressure;BME280_temperature;BME280_humidity;BME280_pressure;Samples;Min_cycle;Max_cycle;Signal;HPM_P1;HPM_P2
2022/01/29 00:00:14;;;;;;;58.85;34.55;;;;;;;7.53;72.80;100889.22;5092479;28;20078;-59
2022/01/29 00:02:41;;;;;;;54.85;32.95;;;;;;;7.53;72.67;100890.97;5092308;28;20044;-58
2022/01/29 00:05:09;;;;;;;60.45;33.10;;;;;;;7.53;73.06;100883.09;5092596;28;20117;-60
2022/01/29 00:07:41;;;;;;;55.25;32.50;;;;;;;7.52;73.12;100881.41;5092097;28;20449;-61
2022/01/29 00:10:09;;;;;;;57.53;33.33;;;;;;;7.50;72.78;100883.19;5090814;28;20533;-58
2022/01/29 00:12:36;;;;;;;58.92;33.80;;;;;;;7.49;73.20;100855.25;5092339;28;20105;-60
2022/01/29 00:15:03;;;;;;;54.75;32.60;;;;;;;7.49;73.26;100847.41;5092198;28;20480;-59
2022/01/29 00:17:30;;;;;;;59.85;33.30;;;;;;;7.47;72.98;100844.81;5091743;28;20055;-61
2022/01/29 00:19:57;;;;;;;62.53;34.17;;;;;;;7.47;73.16;100854.47;5091892;28;20097;-59
2022/01/29 00:22:24;;;;;;;63.50;33.65;;;;;;;7.45;73.58;100851.00;5091884;28;20456;-58
2022/01/29 00:24:51;;;;;;;59.92;33.42;;;;;;;7.44;73.47;100839.66;5090302;28;20059;-59
2022/01/29 00:27:20;;;;;;;55.30;31.58;;;;;;;7.46;73.42;100835.25;5092153;28;20093;-60
2022/01/29 00:29:47;;;;;;;61.92;34.33;;;;;;;7.46;73.46;100832.63;5091848;28;20048;-59
2022/01/29 00:32:13;;;;;;;58.40;32.25;;;;;;;7.46;73.56;100806.44;5091729;28;20048;-58
2022/01/29 00:34:41;;;;;;;61.97;34.03;;;;;;;7.46;73.29;100827.38;5091286;28;20554;-60
2022/01/29 00:37:08;;;;;;;57.53;32.90;;;;;;;7.47;73.34;100838.75;5091611;28;20044;-59
2022/01/29 00:39:35;;;;;;;56.42;31.25;;;;;;;7.48;73.29;100827.34;5091326;28;20060;-59
2022/01/29 00:42:04;;;;;;;60.08;32.85;;;;;;;7.47;73.40;100821.25;5091389;28;20405;-59
2022/01/29 00:44:42;;;;;;;60.45;32.75;;;;;;;7.50;73.71;100817.69;5089402;28;20052;-60
2022/01/29 00:47:09;;;;;;;64.38;33.85;;;;;;;7.50;73.25;100831.66;5091564;28;20048;-59
2022/01/29 00:49:36;;;;;;;57.13;33.15;;;;;;;7.52;73.33;100829.00;5091304;28;20125;-59
2022/01/29 00:52:04;;;;;;;60.15;33.55;;;;;;;7.51;73.48;100815.03;5090119;28;20056;-59
2022/01/29 00:54:31;;;;;;;64.78;33.45;;;;;;;7.51;73.45;100801.94;5091408;28;20048;-59
2022/01/29 00:56:57;;;;;;;57.65;31.23;;;;;;;7.52;73.61;100792.31;5091442;28;20561;-59
2022/01/29 00:59:24;;;;;;;63.03;34.33;;;;;;;7.53;73.22;100796.66;5091181;28;20040;-59
2022/01/29 01:01:50;;;;;;;64.55;34.53;;;;;;;7.53;73.59;100807.13;5091196;28;20085;-58
2022/01/29 01:04:17;;;;;;;58.35;32.17;;;;;;;7.52;73.58;100787.06;5090624;28;20043;-59
2022/01/29 01:06:44;;;;;;;65.40;33.40;;;;;;;7.50;73.47;100781.00;5091163;28;20051;-58
2022/01/29 01:09:11;;;;;;;63.10;33.33;;;;;;;7.51;73.70;100773.09;5091416;28;20044;-61
2022/01/29 01:11:37;;;;;;;58.33;32.47;;;;;;;7.51;73.42;100782.75;5091290;28;20485;-60
2022/01/29 01:14:04;;;;;;;55.85;32.22;;;;;;;7.52;73.29;100781.84;5090929;28;20048;-60
2022/01/29 01:16:31;;;;;;;58.55;32.60;;;;;;;7.52;73.25;100766.97;5090486;28;20048;-60
2022/01/29 01:18:57;;;;;;;59.22;32.03;;;;;;;7.53;73.43;100755.59;5091051;28;20109;-60
2022/01/29 01:21:24;;;;;;;58.55;31.95;;;;;;;7.53;73.64;100750.34;5090992;28;20052;-59
2022/01/29 01:23:50;;;;;;;60.58;31.75;;;;;;;7.53;73.76;100741.63;5091213;28;20380;-59
2022/01/29 01:26:18;;;;;;;57.88;32.55;;;;;;;7.53;73.36;100723.28;5091100;28;20051;-60
2022/01/29 01:28:44;;;;;;;61.03;32.65;;;;;;;7.51;73.35;100732.97;5089949;28;20051;-59
2022/01/29 01:31:11;;;;;;;56.03;30.90;;;;;;;7.52;73.65;100729.44;5090683;28;20541;-59
2022/01/29 01:33:37;;;;;;;53.58;30.83;;;;;;;7.53;73.78;100718.03;5090744;28;20048;-62
2022/01/29 01:36:06;;;;;;;59.78;31.13;;;;;;;7.54;73.57;100717.13;5090996;28;20045;-60
2022/01/29 01:38:48;;;;;;;53.92;30.13;;;;;;;7.52;73.53;100713.72;5089936;28;20094;-58
2022/01/29 01:41:21;;;;;;;55.97;30.30;;;;;;;7.53;73.51;100733.75;5090921;28;20044;-59
2022/01/29 01:43:47;;;;;;;38.42;23.08;;;;;;;7.55;73.76;100724.09;5090773;28;20040;-59
2022/01/29 01:46:15;;;;;;;53.33;30.05;;;;;;;7.55;73.53;100724.97;5090615;28;20063;-60
2022/01/29 01:48:42;;;;;;;47.85;27.75;;;;;;;7.56;73.48;100715.34;5089807;28;20063;-61
2022/01/29 01:51:09;;;;;;;55.03;29.65;;;;;;;7.57;73.49;100727.53;5090425;28;20489;-59
2022/01/29 01:53:35;;;;;;;57.95;31.33;;;;;;;7.59;73.62;100717.00;5090838;28;20048;-60
2022/01/29 01:56:02;;;;;;;53.22;29.90;;;;;;;7.56;73.44;100729.28;5093279;28;20044;-60
2022/01/29 01:58:28;;;;;;;57.40;30.63;;;;;;;7.59;73.34;100733.56;5094512;28;20089;-59
2022/01/29 02:00:55;;;;;;;49.78;28.25;;;;;;;7.58;73.59;100726.63;5076756;28;20109;-58
2022/01/29 02:03:22;;;;;;;53.10;30.75;;;;;;;7.58;73.50;100724.00;5094870;28;20044;-59
2022/01/29 02:05:50;;;;;;;52.58;27.98;;;;;;;7.60;73.54;100716.97;5094473;28;20048;-59
2022/01/29 02:08:16;;;;;;;54.10;29.45;;;;;;;7.60;73.72;100716.09;5094677;28;20045;-61
2022/01/29 02:10:46;;;;;;;51.05;29.33;;;;;;;7.61;73.46;100710.81;5094390;28;20059;-59
2022/01/29 02:13:12;;;;;;;56.72;31.13;;;;;;;7.59;73.49;100712.63;5093015;28;20054;-61
2022/01/29 02:15:39;;;;;;;53.90;29.15;;;;;;;7.58;73.58;100687.31;5094381;28;20048;-60
2022/01/29 02:18:12;;;;;;;54.72;28.02;;;;;;;7.56;73.76;100691.75;5094436;28;20048;-59
2022/01/29 02:20:40;;;;;;;54.67;29.88;;;;;;;7.54;73.90;100677.84;5094208;28;20048;-63
2022/01/29 02:23:07;;;;;;;51.55;29.08;;;;;;;7.53;73.81;100668.28;5093144;28;20077;-60
2022/01/29 02:25:40;;;;;;;45.53;27.23;;;;;;;7.47;74.36;100668.47;5092735;28;20454;-59
2022/01/29 02:28:11;;;;;;;;;;;;;;;7.48;74.56;100668.38;5093707;28;20412;-59
2022/01/29 02:30:40;;;;;;;52.08;28.23;;;;;;;7.49;74.42;100667.50;5092840;28;19923;-60
2022/01/29 02:33:10;;;;;;;50.25;28.02;;;;;;;7.45;74.26;100638.81;5093042;28;20067;-59
2022/01/29 02:35:40;;;;;;;52.00;28.35;;;;;;;7.41;74.49;100636.28;5093675;28;20097;-60
2022/01/29 02:38:08;;;;;;;50.47;27.83;;;;;;;7.41;74.77;100631.03;5092729;28;20070;-60
2022/01/29 02:40:41;;;;;;;53.05;30.60;;;;;;;7.39;74.71;100647.72;5094011;28;20074;-60
2022/01/29 02:43:16;;;;;;;49.42;27.92;;;;;;;7.37;75.16;100613.69;5092798;28;20051;-59
2022/01/29 02:45:46;;;;;;;54.30;29.13;;;;;;;7.37;75.17;100612.84;5092526;28;20493;-61
2022/01/29 02:48:13;;;;;;;52.17;28.52;;;;;;;7.36;75.59;100616.38;5092614;28;20043;-60
2022/01/29 02:50:41;;;;;;;51.45;28.13;;;;;;;7.35;75.61;100625.13;5093380;28;20082;-59
2022/01/29 02:53:07;;;;;;;50.03;28.77;;;;;;;7.34;75.84;100605.09;5092689;28;20051;-61
2022/01/29 02:55:34;;;;;;;46.10;25.08;;;;;;;7.34;75.79;100608.56;5093279;28;20109;-60
2022/01/29 02:58:02;;;;;;;49.33;26.80;;;;;;;7.35;75.97;100591.94;5093729;28;20116;-58
2022/01/29 03:00:28;;;;;;;42.78;25.27;;;;;;;7.36;75.83;100601.50;5092166;28;20051;-59
2022/01/29 03:02:55;;;;;;;45.83;25.80;;;;;;;7.36;76.42;100604.13;5093553;28;20074;-59
2022/01/29 03:05:22;;;;;;;44.72;27.67;;;;;;;7.36;76.42;100588.41;5093018;28;20143;-60
2022/01/29 03:07:49;;;;;;;51.85;28.08;;;;;;;7.38;76.41;100588.38;5092342;28;20051;-59
2022/01/29 03:10:15;;;;;;;50.35;28.33;;;;;;;7.39;76.44;100595.31;5093499;28;20055;-60
2022/01/29 03:12:42;;;;;;;44.35;26.25;;;;;;;7.41;76.58;100594.38;5093384;28;20052;-59
2022/01/29 03:15:11;;;;;;;50.38;27.23;;;;;;;7.41;76.82;100570.78;5092873;28;20040;-60
2022/01/29 03:17:38;;;;;;;50.50;28.33;;;;;;;7.41;76.58;100564.72;5093147;28;20052;-60
2022/01/29 03:20:06;;;;;;;51.38;28.40;;;;;;;7.41;76.69;100573.41;5092039;28;20055;-59
2022/01/29 03:22:32;;;;;;;48.90;28.30;;;;;;;7.43;76.86;100560.28;5092014;28;20056;-60
2022/01/29 03:24:59;;;;;;;43.72;26.42;;;;;;;7.45;76.82;100565.47;5093192;28;20048;-59
2022/01/29 03:27:25;;;;;;;46.13;27.67;;;;;;;7.45;76.86;100571.56;5093011;28;20089;-59
2022/01/29 03:29:52;;;;;;;46.85;27.02;;;;;;;7.46;76.76;100570.66;5087040;28;20051;-61
2022/01/29 03:32:19;;;;;;;46.42;25.98;;;;;;;7.48;76.67;100570.63;5091407;28;20558;-60
2022/01/29 03:34:45;;;;;;;47.63;26.80;;;;;;;7.46;77.25;100568.03;5091740;28;20056;-60
2022/01/29 03:37:12;;;;;;;50.00;27.70;;;;;;;7.48;77.06;100586.34;5092384;28;20052;-59
2022/01/29 03:39:41;;;;;;;39.67;24.55;;;;;;;7.51;77.17;100578.41;5092742;28;20048;-59
2022/01/29 03:42:10;;;;;;;39.95;23.90;;;;;;;7.53;76.87;100566.09;5092878;28;20462;-59
2022/01/29 03:44:36;;;;;;;40.88;24.85;;;;;;;7.55;77.25;100561.66;5092714;28;20051;-59
2022/01/29 03:47:03;;;;;;;40.95;23.60;;;;;;;7.57;77.08;100559.84;5092233;28;20493;-59
2022/01/29 03:49:30;;;;;;;36.72;22.15;;;;;;;7.62;77.27;100559.72;5092267;28;20107;-60
2022/01/29 03:51:56;;;;;;;38.92;24.90;;;;;;;7.61;76.93;100569.34;5092677;28;20056;-58
2022/01/29 03:54:23;;;;;;;40.40;23.60;;;;;;;7.64;76.96;100553.53;5092658;28;20101;-58
2022/01/29 03:56:49;;;;;;;37.65;22.95;;;;;;;7.66;77.15;100551.69;5092007;28;20090;-59
2022/01/29 03:59:16;;;;;;;40.45;21.88;;;;;;;7.68;77.08;100560.38;5092407;28;20464;-59
2022/01/29 04:01:43;;;;;;;37.17;21.55;;;;;;;7.71;77.02;100546.31;5092320;28;20637;-62
2022/01/29 04:04:09;;;;;;;36.03;22.05;;;;;;;7.74;77.24;100547.97;5092459;28;20055;-60
2022/01/29 04:06:36;;;;;;;40.70;23.45;;;;;;;7.74;76.94;100546.19;5092314;28;20062;-60
2022/01/29 04:09:05;;;;;;;36.38;21.88;;;;;;;7.76;77.09;100538.28;5092364;28;20496;-59
2022/01/29 04:11:36;;;;;;;38.50;23.65;;;;;;;7.77;77.04;100542.63;5090919;28;20428;-60
2022/01/29 04:14:04;;;;;;;33.50;21.90;;;;;;;7.76;77.45;100538.28;5092114;28;20055;-60
2022/01/29 04:16:31;;;;;;;38.00;20.80;;;;;;;7.76;77.34;100526.06;5090412;28;20044;-60
2022/01/29 04:18:57;;;;;;;35.05;21.70;;;;;;;7.77;77.15;100527.75;5091766;28;20105;-60
2022/01/29 04:21:24;;;;;;;36.47;22.50;;;;;;;7.79;77.45;100519.84;5091732;28;20051;-61
2022/01/29 04:23:50;;;;;;;37.50;22.25;;;;;;;7.79;77.23;100515.47;5091962;28;20488;-59
2022/01/29 04:26:17;;;;;;;34.42;21.75;;;;;;;7.81;77.40;100508.41;5091752;28;20078;-59
2022/01/29 04:28:45;;;;;;;35.33;20.42;;;;;;;7.81;77.55;100513.66;5091662;28;20044;-60
2022/01/29 04:31:17;;;;;;;32.03;20.65;;;;;;;7.83;77.52;100510.97;5090582;28;20063;-60
2022/01/29 04:33:45;;;;;;;27.27;18.08;;;;;;;7.86;77.33;100494.28;5091838;28;20055;-59
2022/01/29 04:36:12;;;;;;;32.40;20.10;;;;;;;7.87;77.34;100501.25;5090359;28;20043;-60
2022/01/29 04:38:38;;;;;;;30.20;19.75;;;;;;;7.87;77.65;100483.75;5091830;28;20048;-59
2022/01/29 04:41:05;;;;;;;30.27;20.25;;;;;;;7.90;77.47;100491.53;5091405;28;20055;-59
2022/01/29 04:43:33;;;;;;;31.55;20.05;;;;;;;7.91;77.19;100484.50;5091820;28;20044;-60
2022/01/29 04:46:05;;;;;;;26.98;18.15;;;;;;;7.91;77.24;100482.75;5090287;28;20048;-60
2022/01/29 04:48:32;;;;;;;32.42;19.40;;;;;;;7.92;77.40;100492.31;5091592;28;20055;-59
2022/01/29 04:50:59;;;;;;;30.30;20.50;;;;;;;7.93;77.34;100485.31;5091441;28;20048;-59
2022/01/29 04:53:25;;;;;;;28.85;19.13;;;;;;;7.92;77.38;100476.59;5091201;28;20393;-59
2022/01/29 04:55:52;;;;;;;25.98;17.85;;;;;;;7.95;77.33;100471.25;5091219;28;20044;-59
2022/01/29 04:58:18;;;;;;;31.00;18.48;;;;;;;7.95;77.37;100473.88;5091385;28;20048;-60
2022/01/29 05:00:45;;;;;;;26.63;16.67;;;;;;;7.98;77.73;100466.78;5091335;28;20109;-59
2022/01/29 05:03:13;;;;;;;25.23;16.75;;;;;;;7.99;77.38;100468.53;5091283;28;20099;-60
2022/01/29 05:05:42;;;;;;;25.08;17.00;;;;;;;8.00;77.81;100471.06;5123791;27;20048;-62
2022/01/29 05:08:11;;;;;;;28.48;17.15;;;;;;;8.02;77.50;100473.63;5090001;28;20059;-59
2022/01/29 05:10:38;;;;;;;25.23;16.38;;;;;;;8.04;77.34;100456.09;5091067;28;20044;-60
2022/01/29 05:13:11;;;;;;;26.38;17.00;;;;;;;8.05;77.60;100453.44;5091124;28;20048;-60
2022/01/29 05:15:46;;;;;;;27.55;17.48;;;;;;;8.07;77.34;100455.97;5088950;28;20071;-59
2022/01/29 05:29:13;;;;;;;25.63;17.45;;;;;;;8.15;77.47;100453.09;5091669;28;20116;-60
2022/01/29 05:31:40;;;;;;;24.60;17.00;;;;;;;8.17;77.80;100446.88;5097724;28;20048;-59
2022/01/29 05:34:07;;;;;;;26.60;16.55;;;;;;;8.19;77.74;100445.06;5098057;28;20050;-59
2022/01/29 05:36:33;;;;;;;23.67;15.50;;;;;;;8.23;77.58;100444.94;5097478;28;20047;-60
2022/01/29 05:39:00;;;;;;;23.98;15.98;;;;;;;8.25;77.67;100454.47;5097840;28;20078;-59
2022/01/29 05:41:28;;;;;;;27.70;17.50;;;;;;;8.26;77.60;100447.47;5096164;28;20052;-61
2022/01/29 05:43:55;;;;;;;26.45;17.15;;;;;;;8.29;77.44;100436.84;5096440;28;20055;-60
2022/01/29 05:46:22;;;;;;;24.83;17.83;;;;;;;8.31;77.54;100437.66;5097485;28;20051;-59
2022/01/29 05:48:48;;;;;;;22.63;16.33;;;;;;;8.32;77.47;100431.50;5097706;28;20052;-59
2022/01/29 05:51:15;;;;;;;26.25;17.30;;;;;;;8.32;77.33;100434.13;5097229;28;20040;-60
2022/01/29 05:53:41;;;;;;;25.80;18.00;;;;;;;8.33;77.47;100431.44;5097421;28;20048;-61
2022/01/29 05:56:08;;;;;;;23.80;16.63;;;;;;;8.35;77.55;100436.63;5097405;28;20078;-60
2022/01/29 05:58:35;;;;;;;23.88;17.02;;;;;;;8.34;77.66;100427.06;5097488;28;20044;-60
2022/01/29 06:01:01;;;;;;;23.42;16.73;;;;;;;8.35;77.60;100434.00;5097509;28;20109;-59
2022/01/29 06:03:28;;;;;;;25.08;16.35;;;;;;;8.37;77.50;100410.34;5097512;28;20048;-59
2022/01/29 06:05:55;;;;;;;24.42;16.77;;;;;;;8.40;77.58;100432.06;5097324;28;20519;-60
2022/01/29 06:08:21;;;;;;;24.77;16.80;;;;;;;8.41;77.60;100406.72;5097600;28;20055;-58
2022/01/29 06:10:48;;;;;;;27.77;17.98;;;;;;;8.40;77.45;100410.22;5097252;28;20044;-59
2022/01/29 06:13:16;;;;;;;24.42;16.83;;;;;;;8.42;77.67;100408.41;5097499;28;20602;-59
2022/01/29 06:15:45;;;;;;;26.67;17.80;;;;;;;8.40;77.63;100405.84;5095652;28;20059;-59
2022/01/29 06:18:17;;;;;;;26.83;17.63;;;;;;;8.42;77.60;100409.28;5097069;28;20051;-60
2022/01/29 06:20:49;;;;;;;30.50;17.88;;;;;;;8.43;77.73;100420.59;5097004;28;20093;-60
2022/01/29 06:23:20;;;;;;;27.42;17.77;;;;;;;8.44;77.58;100411.81;5097082;28;20055;-61
2022/01/29 06:25:46;;;;;;;28.77;18.50;;;;;;;8.44;77.48;100414.44;5096038;28;20113;-59
2022/01/29 06:28:13;;;;;;;27.35;17.48;;;;;;;8.45;77.39;100424.88;5097051;28;20105;-60
2022/01/29 06:30:39;;;;;;;29.75;18.15;;;;;;;8.44;77.71;100422.31;5097159;28;20450;-59
2022/01/29 06:33:11;;;;;;;26.38;16.92;;;;;;;8.46;77.76;100421.34;5097359;28;20561;-61
2022/01/29 06:35:40;;;;;;;26.45;17.30;;;;;;;8.49;77.50;100417.78;5095500;28;20055;-59
2022/01/29 06:38:08;;;;;;;32.63;19.15;;;;;;;8.51;77.83;100409.81;5097521;28;20055;-60
2022/01/29 06:40:36;;;;;;;28.73;18.67;;;;;;;8.53;77.90;100413.28;5095499;28;20105;-63
2022/01/29 06:43:04;;;;;;;40.38;19.88;;;;;;;8.51;78.10;100408.06;5092595;28;20064;-61
2022/01/29 06:45:32;;;;;;;30.23;19.42;;;;;;;8.50;78.14;100388.00;5093334;28;20050;-60
2022/01/29 06:47:59;;;;;;;33.63;19.45;;;;;;;8.55;78.10;100393.06;5092563;28;20793;-59
2022/01/29 06:50:27;;;;;;;32.45;19.70;;;;;;;8.55;78.40;100398.31;5092129;28;20458;-59
2022/01/29 06:52:54;;;;;;;35.60;21.00;;;;;;;8.53;78.22;100397.53;5092315;28;20047;-59
2022/01/29 06:55:21;;;;;;;39.38;21.77;;;;;;;8.55;78.18;100387.81;5093740;28;20090;-59
2022/01/29 06:57:47;;;;;;;37.10;21.55;;;;;;;8.55;78.40;100388.69;5093621;28;20542;-61
2022/01/29 07:00:34;;;;;;;39.20;21.25;;;;;;;8.55;78.27;100375.56;5092573;28;20048;-59
2022/01/29 07:03:02;;;;;;;38.05;21.52;;;;;;;8.55;78.63;100362.44;5093001;28;20060;-60
2022/01/29 07:05:29;;;;;;;50.13;22.17;;;;;;;8.56;78.62;100366.78;5093027;28;20135;-59
2022/01/29 07:07:55;;;;;;;37.15;20.40;;;;;;;8.59;78.54;100373.69;5092544;28;20056;-60
2022/01/29 07:10:22;;;;;;;50.05;23.15;;;;;;;8.57;78.74;100360.59;5093151;28;20073;-59
2022/01/29 07:12:48;;;;;;;37.72;21.35;;;;;;;8.59;79.05;100371.06;5092779;28;20047;-60
2022/01/29 07:15:15;;;;;;;36.88;21.25;;;;;;;8.59;79.08;100363.19;5091574;28;20563;-61
2022/01/29 07:17:41;;;;;;;32.85;20.05;;;;;;;8.61;78.91;100358.75;5093149;28;20450;-60
2022/01/29 07:20:08;;;;;;;32.35;20.00;;;;;;;8.61;79.16;100366.63;5093140;28;20048;-60
2022/01/29 07:22:37;;;;;;;34.25;20.48;;;;;;;8.63;79.13;100367.41;5091931;28;20055;-60
2022/01/29 07:25:04;;;;;;;42.40;21.13;;;;;;;8.64;79.11;100366.50;5092878;28;20040;-61
2022/01/29 07:27:31;;;;;;;40.22;21.55;;;;;;;8.64;79.36;100361.25;5072538;28;20398;-60
2022/01/29 07:29:57;;;;;;;32.58;19.33;;;;;;;8.67;79.22;100368.97;5071989;28;20068;-60
2022/01/29 07:32:24;;;;;;;41.05;22.00;;;;;;;8.66;79.34;100367.28;5072268;28;20052;-60
2022/01/29 07:34:51;;;;;;;34.35;20.65;;;;;;;8.68;79.19;100354.94;5071477;28;20048;-59
2022/01/29 07:37:17;;;;;;;35.55;21.30;;;;;;;8.69;79.40;100359.28;5090752;28;20051;-59
2022/01/29 07:39:44;;;;;;;46.33;22.98;;;;;;;8.70;79.29;100353.13;5091733;28;20101;-60
2022/01/29 07:42:10;;;;;;;40.63;22.77;;;;;;;8.71;79.57;100349.56;5091128;28;20048;-60
2022/01/29 07:44:37;;;;;;;41.85;23.45;;;;;;;8.73;79.75;100339.88;5093353;28;20056;-59
2022/01/29 07:47:04;;;;;;;42.22;24.17;;;;;;;8.73;79.55;100339.88;5092925;28;20097;-61
2022/01/29 07:49:31;;;;;;;41.42;24.27;;;;;;;8.75;79.83;100326.72;5092728;28;20044;-59
2022/01/29 07:51:58;;;;;;;49.90;25.50;;;;;;;8.77;79.58;100330.09;5092609;28;20696;-59
2022/01/29 07:54:24;;;;;;;52.28;26.08;;;;;;;8.78;79.80;100320.47;5090811;28;20052;-59
2022/01/29 07:56:51;;;;;;;41.47;24.05;;;;;;;8.79;79.79;100322.19;5091909;28;20048;-59
2022/01/29 07:59:17;;;;;;;39.50;24.17;;;;;;;8.80;79.78;100324.75;5091114;28;20056;-60
2022/01/29 08:01:44;;;;;;;42.97;24.13;;;;;;;8.83;79.73;100305.38;5091444;28;20093;-59
2022/01/29 08:04:10;;;;;;;40.85;23.85;;;;;;;8.82;80.05;100301.91;5091471;28;20052;-59
2022/01/29 08:06:37;;;;;;;42.75;23.73;;;;;;;8.85;79.83;100301.78;5091094;28;20097;-59
2022/01/29 08:09:04;;;;;;;34.30;21.90;;;;;;;8.90;79.86;100303.38;5072777;28;20480;-60
2022/01/29 08:11:30;;;;;;;35.00;21.60;;;;;;;8.91;79.83;100299.81;5090158;28;20048;-61
2022/01/29 08:13:57;;;;;;;37.25;21.52;;;;;;;8.94;79.96;100292.66;5091223;28;20047;-59
2022/01/29 08:16:23;;;;;;;35.95;22.35;;;;;;;8.96;79.75;100306.59;5091945;28;20052;-59
2022/01/29 08:18:51;;;;;;;31.10;20.15;;;;;;;8.98;79.92;100288.16;5091742;28;20040;-59
2022/01/29 08:21:18;;;;;;;29.75;19.05;;;;;;;8.98;80.00;100294.22;5089700;28;20113;-59
2022/01/29 08:23:45;;;;;;;31.10;20.08;;;;;;;9.01;79.90;100306.38;5092099;28;20057;-60
2022/01/29 08:26:13;;;;;;;24.98;17.45;;;;;;;9.03;79.86;100303.69;5091393;28;20063;-59
2022/01/29 08:28:40;;;;;;;33.90;19.70;;;;;;;9.05;80.08;100294.81;5090980;28;20500;-60
2022/01/29 08:31:06;;;;;;;28.30;18.40;;;;;;;9.07;79.94;100289.50;5090447;28;20040;-59
2022/01/29 08:33:34;;;;;;;28.23;19.00;;;;;;;9.08;79.86;100281.56;5091972;28;20052;-60
2022/01/29 08:36:02;;;;;;;29.10;18.80;;;;;;;9.10;79.82;100289.41;5092091;28;20377;-59
2022/01/29 08:38:29;;;;;;;28.02;18.45;;;;;;;9.10;79.97;100279.75;5091659;28;20052;-60
2022/01/29 08:40:58;;;;;;;25.08;17.92;;;;;;;9.13;79.78;100290.09;5091237;28;20104;-60
2022/01/29 08:43:26;;;;;;;26.88;17.15;;;;;;;9.15;80.03;100273.47;5091522;28;20127;-60
2022/01/29 08:45:53;;;;;;;26.52;18.23;;;;;;;9.15;80.12;100287.41;5070121;28;20496;-59
2022/01/29 08:48:20;;;;;;;26.67;16.42;;;;;;;9.19;80.15;100282.91;5071020;28;20052;-60
2022/01/29 08:50:47;;;;;;;25.08;17.45;;;;;;;9.19;79.95;100272.41;5071272;28;20049;-59
2022/01/29 08:53:16;;;;;;;24.40;15.93;;;;;;;9.23;79.94;100271.31;5071731;28;20484;-60
2022/01/29 08:55:43;;;;;;;27.13;17.13;;;;;;;9.24;80.11;100273.88;5074161;28;20040;-59
2022/01/29 08:58:10;;;;;;;25.27;16.77;;;;;;;9.27;79.95;100270.28;5090223;28;20052;-60
2022/01/29 09:00:41;;;;;;;21.90;15.70;;;;;;;9.27;80.00;100270.28;5091394;28;20435;-59
2022/01/29 09:03:07;;;;;;;21.73;14.90;;;;;;;9.31;80.05;100271.00;5090317;28;20044;-60
2022/01/29 09:05:34;;;;;;;25.27;16.13;;;;;;;9.33;80.06;100261.28;5090431;28;20397;-59
2022/01/29 09:08:03;;;;;;;22.08;14.85;;;;;;;9.35;79.80;100257.66;5091711;28;20090;-60
2022/01/29 09:10:31;;;;;;;20.70;14.43;;;;;;;9.36;79.85;100266.41;5091428;28;20108;-61
2022/01/29 09:12:58;;;;;;;21.55;15.63;;;;;;;9.37;79.79;100255.84;5091245;28;20539;-59
2022/01/29 09:15:24;;;;;;;20.83;14.70;;;;;;;9.41;79.85;100264.44;5091096;28;20071;-59
2022/01/29 09:17:51;;;;;;;21.88;14.90;;;;;;;9.45;80.05;100273.88;5091255;28;20055;-60
2022/01/29 09:20:18;;;;;;;22.02;15.93;;;;;;;9.43;79.98;100278.38;5090824;28;20574;-61
2022/01/29 09:22:45;;;;;;;22.05;15.10;;;;;;;9.45;79.96;100263.38;5091447;28;20107;-60
2022/01/29 09:25:12;;;;;;;22.70;14.68;;;;;;;9.46;79.87;100261.59;5091115;28;20052;-60
2022/01/29 09:27:38;;;;;;;19.45;14.27;;;;;;;9.48;80.01;100260.63;5090927;28;20465;-60
2022/01/29 09:30:06;;;;;;;23.13;15.40;;;;;;;9.49;80.00;100238.66;5091070;28;20048;-60
2022/01/29 09:32:33;;;;;;;23.60;15.07;;;;;;;9.52;80.08;100256.94;5090897;28;20389;-60
2022/01/29 09:35:00;;;;;;;20.60;14.27;;;;;;;9.56;79.90;100233.13;5089964;28;20416;-60
2022/01/29 09:37:27;;;;;;;21.45;15.23;;;;;;;9.57;80.07;100233.06;5089475;28;20044;-60
2022/01/29 09:39:55;;;;;;;20.67;14.73;;;;;;;9.61;80.00;100249.56;5090775;28;20054;-59
2022/01/29 09:42:22;;;;;;;20.58;15.38;;;;;;;9.63;80.05;100245.06;5090974;28;20753;-60
2022/01/29 09:44:51;;;;;;;23.30;16.13;;;;;;;9.64;79.91;100233.63;5091041;28;20097;-60
2022/01/29 09:47:21;;;;;;;25.27;17.45;;;;;;;9.65;80.11;100227.47;5089335;28;20052;-59
2022/01/29 09:49:48;;;;;;;23.25;14.25;;;;;;;9.71;79.96;100216.66;5090729;28;20048;-60
2022/01/29 09:52:14;;;;;;;22.23;15.77;;;;;;;9.72;80.22;100226.25;5089633;28;20044;-59
2022/01/29 09:54:45;;;;;;;23.40;15.05;;;;;;;9.74;80.05;100208.66;5089202;28;20036;-59
2022/01/29 09:57:12;;;;;;;22.02;14.02;;;;;;;9.78;79.90;100218.09;5089675;28;20044;-59
2022/01/29 09:59:39;;;;;;;22.17;15.25;;;;;;;9.81;80.00;100218.84;5090573;28;20048;-60
2022/01/29 10:02:17;;;;;;;23.45;16.10;;;;;;;9.77;80.33;100199.75;5089447;28;20519;-59
2022/01/29 10:04:51;;;;;;;20.70;15.13;;;;;;;9.81;80.08;100206.59;5090693;28;20511;-59
2022/01/29 10:07:26;;;;;;;20.95;15.50;;;;;;;9.82;80.25;100212.66;5090924;28;20489;-60
2022/01/29 10:09:55;;;;;;;18.10;14.10;;;;;;;9.86;80.13;100201.94;5090574;28;20408;-60
2022/01/29 10:12:28;;;;;;;21.10;15.00;;;;;;;9.86;80.08;100194.06;5090626;28;20382;-59
2022/01/29 10:15:07;;;;;;;19.33;14.15;;;;;;;9.90;79.94;100181.63;5089040;28;20040;-59
2022/01/29 10:17:55;;;;;;;19.23;13.13;;;;;;;9.94;79.79;100188.44;5093935;28;20488;-60
2022/01/29 10:20:26;;;;;;;19.70;13.93;;;;;;;9.93;79.78;100199.03;5094177;28;20471;-59
2022/01/29 10:22:57;;;;;;;18.80;12.90;;;;;;;9.94;79.77;100172.66;5094368;28;20098;-60
2022/01/29 10:25:28;;;;;;;17.70;12.95;;;;;;;9.96;79.77;100191.84;5093002;28;20102;-59
2022/01/29 10:28:09;;;;;;;16.92;12.05;;;;;;;9.97;79.82;100175.16;5094455;28;20082;-60
2022/01/29 10:31:02;;;;;;;16.85;12.40;;;;;;;9.97;79.85;100163.75;5092457;28;20056;-60
2022/01/29 10:33:31;;;;;;;15.52;12.07;;;;;;;10.02;79.68;100167.06;5074181;28;20048;-59
2022/01/29 10:36:04;;;;;;;13.50;10.88;;;;;;;10.02;79.87;100156.53;5072810;28;20052;-61
2022/01/29 10:38:40;;;;;;;15.10;11.68;;;;;;;9.98;79.83;100145.28;5073668;28;20094;-60
2022/01/29 10:41:26;;;;;;;16.17;12.13;;;;;;;10.02;79.82;100144.22;5076711;28;20052;-59
2022/01/29 10:44:10;;;;;;;16.58;11.32;;;;;;;10.00;79.93;100138.19;5094237;28;20580;-59
2022/01/29 10:46:38;;;;;;;;;;;;;;;10.01;80.30;100131.13;5093267;28;20052;-60
2022/01/29 10:49:06;;;;;;;13.27;10.50;;;;;;;10.05;79.92;100135.31;5094001;28;19920;-60
2022/01/29 10:51:34;;;;;;;13.90;11.48;;;;;;;10.02;80.10;100110.03;5093408;28;20051;-60
2022/01/29 10:54:18;;;;;;;13.18;10.02;;;;;;;10.00;80.36;100117.16;5093776;28;20048;-60
2022/01/29 10:56:53;;;;;;;12.98;10.02;;;;;;;10.03;80.26;100110.88;5093663;28;20048;-59
2022/01/29 10:59:21;;;;;;;13.82;10.35;;;;;;;10.06;80.09;100116.00;5093667;28;20082;-60
2022/01/29 11:01:53;;;;;;;11.45;9.20;;;;;;;10.06;80.10;100083.56;5093150;28;20056;-60
2022/01/29 11:04:20;;;;;;;14.13;10.18;;;;;;;10.10;80.12;100074.63;5093709;28;20051;-60
2022/01/29 11:06:50;;;;;;;12.40;9.40;;;;;;;10.12;79.96;100096.41;5093420;28;20109;-61
2022/01/29 11:09:17;;;;;;;13.65;9.90;;;;;;;10.13;80.06;100072.66;5093172;28;20056;-60
2022/01/29 11:11:46;;;;;;;12.63;9.38;;;;;;;10.12;79.98;100076.22;5093427;28;20051;-60
2022/01/29 11:14:16;;;;;;;12.48;9.40;;;;;;;10.14;80.05;100070.91;5092160;28;20117;-59
2022/01/29 11:16:44;;;;;;;12.20;9.65;;;;;;;10.13;80.07;100075.28;5091729;28;20055;-61
2022/01/29 11:19:11;;;;;;;11.57;9.35;;;;;;;10.14;80.09;100058.56;5091986;28;20048;-60
2022/01/29 11:21:41;;;;;;;12.07;9.32;;;;;;;10.13;80.31;100054.25;5091177;28;20569;-60
2022/01/29 11:24:10;;;;;;;10.48;9.15;;;;;;;10.19;80.05;100057.50;5093333;28;20177;-61
2022/01/29 11:26:39;;;;;;;12.70;10.00;;;;;;;10.19;80.09;100055.72;5091796;28;20055;-61
2022/01/29 11:29:26;;;;;;;13.20;10.38;;;;;;;10.16;80.62;100074.28;5092168;28;20048;-60
2022/01/29 11:32:20;;;;;;;16.08;10.75;;;;;;;10.17;80.38;100063.69;5093341;28;20048;-59